createdAt,value
2022-08-17T00:00:34.888Z,100.00
2022-08-17T00:03:09.981Z,100.00
2022-08-17T00:05:42.562Z,100.00
2022-08-17T00:08:12.007Z,100.00
2022-08-17T00:10:40.023Z,100.00
2022-08-17T00:13:18.438Z,100.00
2022-08-17T00:15:46.428Z,100.00
2022-08-17T00:19:01.560Z,100.00
2022-08-17T00:21:04.101Z,100.00
2022-08-17T00:23:47.944Z,100.00
2022-08-17T00:26:44.293Z,100.00
2022-08-17T00:29:07.175Z,100.00
2022-08-17T00:31:35.752Z,100.00
2022-08-17T00:34:04.538Z,100.00
2022-08-17T00:36:31.488Z,100.00
2022-08-17T00:38:58.605Z,100.00
2022-08-17T00:41:27.867Z,100.00
2022-08-17T00:43:59.470Z,100.00
2022-08-17T00:46:36.358Z,100.00
2022-08-17T00:49:05.812Z,100.00
2022-08-17T00:51:42.934Z,100.00
2022-08-17T00:54:33.813Z,100.00
2022-08-17T00:57:36.955Z,100.00
2022-08-17T01:00:26.607Z,100.00
2022-08-17T01:03:00.662Z,100.00
2022-08-17T01:05:31.609Z,100.00
2022-08-17T01:08:00.980Z,100.00
2022-08-17T01:10:58.444Z,100.00
2022-08-17T01:13:25.386Z,100.00
2022-08-17T01:16:30.573Z,100.00
2022-08-17T01:19:02.336Z,100.00
2022-08-17T01:21:37.177Z,100.00
2022-08-17T01:24:04.599Z,100.00
2022-08-17T01:26:33.575Z,100.00
2022-08-17T01:29:02.370Z,100.00
2022-08-17T01:31:38.842Z,100.00
2022-08-17T01:34:11.802Z,100.00
2022-08-17T01:36:43.275Z,100.00
2022-08-17T01:39:22.128Z,100.00
2022-08-17T01:41:52.636Z,100.00
2022-08-17T01:44:20.611Z,100.00
2022-08-17T01:46:47.653Z,100.00
2022-08-17T01:49:14.843Z,100.00
2022-08-17T01:51:41.785Z,100.00
2022-08-17T01:54:12.894Z,100.00
2022-08-17T01:56:47.737Z,100.00
2022-08-17T01:59:15.750Z,100.00
2022-08-17T02:01:43.574Z,100.00
2022-08-17T02:04:11.456Z,100.00
2022-08-17T02:06:52.770Z,100.00
2022-08-17T02:09:29.948Z,100.00
2022-08-17T02:11:59.862Z,100.00
2022-08-17T02:14:46.783Z,100.00
2022-08-17T02:17:13.969Z,100.00
2022-08-17T02:19:41.381Z,100.00
2022-08-17T02:22:08.648Z,100.00
2022-08-17T02:25:00.213Z,100.00
2022-08-17T02:27:26.318Z,100.00
2022-08-17T02:29:53.291Z,100.00
2022-08-17T02:32:27.626Z,100.00
2022-08-17T02:34:56.832Z,100.00
2022-08-17T02:37:25.219Z,100.00
2022-08-17T02:39:52.515Z,100.00
2022-08-17T02:42:28.190Z,100.00
2022-08-17T02:44:55.293Z,100.00
2022-08-17T02:47:22.341Z,100.00
2022-08-17T02:49:55.771Z,100.00
2022-08-17T02:52:43.757Z,100.00
2022-08-17T02:55:16.744Z,100.00
2022-08-17T02:57:44.421Z,100.00
2022-08-17T03:00:28.784Z,100.00
2022-08-17T03:02:56.896Z,100.00
2022-08-17T03:05:28.303Z,100.00
2022-08-17T03:07:56.011Z,100.00
2022-08-17T03:10:24.645Z,100.00
2022-08-17T03:12:52.925Z,100.00
2022-08-17T03:15:25.008Z,100.00
2022-08-17T03:17:54.093Z,100.00
2022-08-17T03:20:22.590Z,100.00
2022-08-17T03:22:54.679Z,100.00
2022-08-17T03:25:39.457Z,100.00
2022-08-17T03:28:07.146Z,100.00
2022-08-17T03:30:34.775Z,100.00
2022-08-17T03:33:07.262Z,100.00
2022-08-17T03:35:36.533Z,100.00
2022-08-17T03:38:07.599Z,100.00
2022-08-17T03:40:57.431Z,100.00
2022-08-17T03:43:22.754Z,100.00
2022-08-17T03:46:11.061Z,100.00
2022-08-17T03:49:14.999Z,100.00
2022-08-17T03:52:00.486Z,100.00
2022-08-17T03:54:46.340Z,100.00
2022-08-17T03:57:13.739Z,100.00
2022-08-17T03:59:41.457Z,100.00
2022-08-17T04:02:32.225Z,100.00
2022-08-17T04:05:00.464Z,100.00
2022-08-17T04:07:30.069Z,100.00
2022-08-17T04:09:58.150Z,100.00
2022-08-17T04:12:26.172Z,100.00
2022-08-17T04:14:54.867Z,100.00
2022-08-17T04:17:28.625Z,100.00
2022-08-17T04:19:56.544Z,100.00
2022-08-17T04:22:33.235Z,100.00
2022-08-17T04:25:16.466Z,100.00
2022-08-17T04:27:43.517Z,100.00
2022-08-17T04:30:11.451Z,100.00
2022-08-17T04:33:08.632Z,100.00
2022-08-17T04:35:41.234Z,100.00
2022-08-17T04:38:14.977Z,100.00
2022-08-17T04:41:01.489Z,100.00
2022-08-17T04:43:31.218Z,100.00
2022-08-17T04:46:05.865Z,100.00
2022-08-17T04:48:37.676Z,100.00
2022-08-17T04:51:13.709Z,100.00
2022-08-17T04:53:44.393Z,100.00
2022-08-17T04:56:16.970Z,100.00
2022-08-17T04:58:49.179Z,100.00
2022-08-17T05:01:24.444Z,100.00
2022-08-17T05:03:54.163Z,100.00
2022-08-17T05:06:21.747Z,100.00
2022-08-17T05:08:48.947Z,100.00
2022-08-17T05:11:26.103Z,100.00
2022-08-17T05:13:54.968Z,100.00
2022-08-17T05:16:24.182Z,100.00
2022-08-17T05:18:52.175Z,100.00
2022-08-17T05:21:20.709Z,100.00
2022-08-17T05:23:50.359Z,100.00
2022-08-17T05:26:25.997Z,100.00
2022-08-17T05:29:02.992Z,100.00
2022-08-17T05:31:30.758Z,100.00
2022-08-17T05:33:58.798Z,100.00
2022-08-17T05:36:37.899Z,100.00
2022-08-17T05:39:16.680Z,100.00
2022-08-17T05:41:47.571Z,100.00
2022-08-17T05:44:15.696Z,100.00
2022-08-17T05:46:48.531Z,100.00
2022-08-17T05:49:19.294Z,100.00
2022-08-17T05:52:04.137Z,100.00
2022-08-17T05:55:04.290Z,100.00
2022-08-17T05:57:54.159Z,100.00
2022-08-17T06:00:31.340Z,100.00
2022-08-17T06:03:32.961Z,100.00
2022-08-17T06:06:19.250Z,100.00
2022-08-17T06:09:04.669Z,100.00
2022-08-17T06:11:39.581Z,100.00
2022-08-17T06:14:24.312Z,100.00
2022-08-17T06:17:05.060Z,100.00
2022-08-17T06:19:51.307Z,100.00
2022-08-17T06:22:22.697Z,100.00
2022-08-17T06:24:57.083Z,100.00
2022-08-17T06:27:42.939Z,100.00
2022-08-17T06:30:15.733Z,100.00
2022-08-17T06:32:45.799Z,100.00
2022-08-17T06:35:18.586Z,100.00
2022-08-17T06:38:00.524Z,100.00
2022-08-17T06:40:55.377Z,100.00
2022-08-17T06:44:03.908Z,100.00
2022-08-17T06:54:36.635Z,100.00
2022-08-17T06:58:21.304Z,100.00
2022-08-17T07:00:58.094Z,100.00
2022-08-17T07:03:37.798Z,100.00
2022-08-17T07:06:24.799Z,100.00
2022-08-17T07:09:17.357Z,100.00
2022-08-17T07:12:00.264Z,100.00
2022-08-17T07:14:42.156Z,100.00
2022-08-17T07:17:13.357Z,100.00
2022-08-17T07:19:45.456Z,100.00
2022-08-17T07:22:57.686Z,100.00
2022-08-17T07:25:30.426Z,100.00
2022-08-17T07:28:02.481Z,100.00
2022-08-17T07:30:46.876Z,100.00
2022-08-17T07:33:25.728Z,100.00
2022-08-17T07:35:53.796Z,100.00
2022-08-17T07:38:28.993Z,100.00
2022-08-17T07:41:14.082Z,100.00
2022-08-17T07:43:40.923Z,100.00
2022-08-17T07:46:51.839Z,100.00
2022-08-17T07:49:42.095Z,100.00
2022-08-17T07:52:50.484Z,100.00
2022-08-17T07:55:32.655Z,100.00
2022-08-17T07:58:00.220Z,100.00
2022-08-17T08:00:32.079Z,100.00
2022-08-17T08:03:11.758Z,100.00
2022-08-17T08:05:54.871Z,100.00
2022-08-17T08:08:42.248Z,100.00
2022-08-17T08:11:15.476Z,100.00
2022-08-17T08:13:45.812Z,100.00
2022-08-17T08:16:29.730Z,100.00
2022-08-17T08:19:01.795Z,100.00
2022-08-17T08:21:43.078Z,100.00
2022-08-17T08:24:31.013Z,100.00
2022-08-17T08:27:27.183Z,100.00
2022-08-17T08:30:09.597Z,100.00
2022-08-17T08:32:57.551Z,100.00
2022-08-17T08:35:40.354Z,100.00
2022-08-17T08:38:42.618Z,100.00
2022-08-17T08:41:38.582Z,100.00
2022-08-17T08:45:01.302Z,100.00
2022-08-17T08:47:40.364Z,100.00
2022-08-17T08:50:37.142Z,100.00
2022-08-17T08:53:46.435Z,100.00
2022-08-17T08:56:39.430Z,100.00
2022-08-17T08:59:27.480Z,100.00
2022-08-17T09:02:18.866Z,100.00
2022-08-17T09:05:14.464Z,100.00
2022-08-17T09:08:01.709Z,100.00
2022-08-17T09:10:57.725Z,100.00
2022-08-17T09:13:42.464Z,100.00
2022-08-17T09:16:17.142Z,100.00
2022-08-17T09:19:01.701Z,100.00
2022-08-17T09:21:52.511Z,100.00
2022-08-17T09:24:36.721Z,100.00
2022-08-17T09:27:26.706Z,100.00
2022-08-17T09:30:00.372Z,100.00
2022-08-17T09:32:49.808Z,100.00
2022-08-17T09:35:23.881Z,100.00
2022-08-17T09:38:00.637Z,100.00
2022-08-17T09:40:40.229Z,100.00
2022-08-17T09:43:31.720Z,100.00
2022-08-17T09:46:11.171Z,100.00
2022-08-17T09:48:50.435Z,100.00
2022-08-17T09:51:36.534Z,100.00
2022-08-17T09:54:37.129Z,100.00
2022-08-17T09:57:28.543Z,100.00
2022-08-17T10:00:16.589Z,100.00
2022-08-17T10:03:20.146Z,100.00
2022-08-17T10:06:25.959Z,100.00
2022-08-17T10:09:14.451Z,100.00
2022-08-17T10:12:20.684Z,100.00
2022-08-17T10:15:22.465Z,100.00
2022-08-17T10:18:13.719Z,100.00
2022-08-17T10:21:33.489Z,100.00
2022-08-17T10:25:21.856Z,100.00
2022-08-17T10:27:48.897Z,100.00
2022-08-17T10:30:22.850Z,100.00
2022-08-17T10:33:01.124Z,100.00
2022-08-17T10:35:58.934Z,100.00
2022-08-17T10:39:08.547Z,100.00
2022-08-17T10:41:49.425Z,100.00
2022-08-17T10:44:51.658Z,100.00
2022-08-17T10:47:19.870Z,100.00
2022-08-17T10:49:53.862Z,100.00
2022-08-17T10:52:21.920Z,100.00
2022-08-17T10:54:50.894Z,100.00
2022-08-17T10:57:31.632Z,100.00
2022-08-17T11:00:01.664Z,100.00
2022-08-17T11:02:52.648Z,100.00
2022-08-17T11:05:41.517Z,100.00
2022-08-17T11:08:40.785Z,100.00
2022-08-17T11:11:19.813Z,100.00
2022-08-17T11:14:16.238Z,100.00
2022-08-17T11:17:09.232Z,100.00
2022-08-17T11:19:59.342Z,100.00
2022-08-17T11:22:59.042Z,100.00
2022-08-17T11:25:46.942Z,100.00
2022-08-17T11:28:35.209Z,100.00
2022-08-17T11:31:38.787Z,100.00
2022-08-17T11:34:21.565Z,100.00
2022-08-17T11:37:17.375Z,100.00
2022-08-17T11:40:20.248Z,100.00
2022-08-17T11:43:25.405Z,100.00
2022-08-17T11:46:54.013Z,100.00
2022-08-17T11:50:02.567Z,100.00
2022-08-17T11:52:44.457Z,100.00
2022-08-17T11:55:38.489Z,100.00
2022-08-17T11:58:30.819Z,100.00
2022-08-17T12:01:02.923Z,100.00
2022-08-17T12:03:33.415Z,100.00
2022-08-17T12:06:20.977Z,100.00
2022-08-17T12:09:02.029Z,100.00
2022-08-17T12:12:15.331Z,100.00
2022-08-17T12:15:10.618Z,100.00
2022-08-17T12:17:40.502Z,100.00
2022-08-17T12:20:29.542Z,100.00
2022-08-17T12:23:10.060Z,100.00
2022-08-17T12:25:49.266Z,100.00
2022-08-17T12:28:33.954Z,100.00
2022-08-17T12:31:06.505Z,100.00
2022-08-17T12:33:36.503Z,100.00
2022-08-17T12:36:07.471Z,100.00
2022-08-17T12:38:37.324Z,100.00
2022-08-17T12:41:27.096Z,100.00
2022-08-17T12:44:22.382Z,100.00
2022-08-17T12:47:22.199Z,100.00
2022-08-17T12:49:57.758Z,100.00
2022-08-17T12:52:32.776Z,100.00
2022-08-17T12:55:11.510Z,100.00
2022-08-17T12:57:38.295Z,100.00
2022-08-17T13:00:24.955Z,100.00
2022-08-17T13:03:02.050Z,100.00
2022-08-17T13:05:40.065Z,100.00
2022-08-17T13:08:23.496Z,95.67
2022-08-17T13:10:58.993Z,79.10
2022-08-17T13:13:31.128Z,89.56
2022-08-17T13:16:01.777Z,87.86
2022-08-17T13:18:39.031Z,89.81
2022-08-17T13:21:25.787Z,89.78
2022-08-17T13:24:17.648Z,77.98
2022-08-17T13:27:12.110Z,100.00
2022-08-17T13:29:45.131Z,91.12
2022-08-17T13:32:33.876Z,76.61
2022-08-17T13:35:15.407Z,71.34
2022-08-17T13:38:12.914Z,85.57
2022-08-17T13:40:53.460Z,77.85
2022-08-17T13:43:40.755Z,76.39
2022-08-17T13:46:19.976Z,72.77
2022-08-17T13:48:58.137Z,58.92
2022-08-17T13:51:29.976Z,53.78
2022-08-17T13:54:01.177Z,59.51
2022-08-17T13:56:46.666Z,50.35
2022-08-17T13:59:53.704Z,55.77
2022-08-17T14:02:19.379Z,64.12
2022-08-17T14:04:47.897Z,53.92
2022-08-17T14:07:15.961Z,56.16
2022-08-17T14:10:06.691Z,59.74
2022-08-17T14:12:35.931Z,55.21
2022-08-17T14:15:03.775Z,58.45
2022-08-17T14:17:36.314Z,54.50
2022-08-17T14:20:09.650Z,72.94
2022-08-17T14:22:40.512Z,59.70
2022-08-17T14:25:08.559Z,60.43
2022-08-17T14:27:51.876Z,69.79
2022-08-17T14:30:23.679Z,70.09
2022-08-17T14:32:52.119Z,75.08
2022-08-17T14:35:22.562Z,70.57
2022-08-17T14:37:51.106Z,79.04
2022-08-17T14:40:22.596Z,86.60
2022-08-17T14:42:49.965Z,86.71
2022-08-17T14:45:30.002Z,66.35
2022-08-17T14:47:59.640Z,72.16
2022-08-17T14:50:27.156Z,79.09
2022-08-17T14:52:57.981Z,86.51
2022-08-17T14:55:25.514Z,75.24
2022-08-17T14:57:52.783Z,78.88
2022-08-17T15:00:20.073Z,79.00
2022-08-17T15:02:58.256Z,71.98
2022-08-17T15:05:31.726Z,57.58
2022-08-17T15:08:00.998Z,60.39
2022-08-17T15:10:29.299Z,64.10
2022-08-17T15:12:56.800Z,66.30
2022-08-17T15:15:24.497Z,66.84
2022-08-17T15:17:52.238Z,78.28
2022-08-17T15:20:23.819Z,81.65
2022-08-17T15:22:54.839Z,78.90
2022-08-17T15:25:22.531Z,66.78
2022-08-17T15:27:49.670Z,82.42
2022-08-17T15:30:16.930Z,60.85
2022-08-17T15:32:51.416Z,68.59
2022-08-17T15:35:29.235Z,65.82
2022-08-17T15:38:11.081Z,61.66
2022-08-17T15:40:43.786Z,60.58
2022-08-17T15:43:16.639Z,70.54
2022-08-17T15:45:43.671Z,75.36
2022-08-17T15:48:11.415Z,81.83
2022-08-17T15:50:38.386Z,90.97
2022-08-17T15:53:05.414Z,89.77
2022-08-17T15:55:34.384Z,82.97
2022-08-17T15:58:02.434Z,90.73
2022-08-17T16:00:29.949Z,86.39
2022-08-17T16:03:44.256Z,100.00
2022-08-17T16:05:50.139Z,90.85
2022-08-17T16:08:21.142Z,100.00
2022-08-17T16:10:49.919Z,100.00
2022-08-17T16:13:19.062Z,100.00
2022-08-17T16:15:57.186Z,97.91
2022-08-17T16:18:31.413Z,98.33
2022-08-17T16:21:27.454Z,100.00
2022-08-17T16:24:00.498Z,84.86
2022-08-17T16:26:29.632Z,100.00
2022-08-17T16:28:58.359Z,84.57
2022-08-17T16:31:25.828Z,92.32
2022-08-17T16:33:56.931Z,78.25
2022-08-17T16:36:41.592Z,86.04
2022-08-17T16:39:29.393Z,86.08
2022-08-17T16:41:57.469Z,89.58
2022-08-17T16:44:30.383Z,100.00
2022-08-17T16:46:58.433Z,83.62
2022-08-17T16:49:35.612Z,95.23
2022-08-17T16:52:04.098Z,96.90
2022-08-17T16:54:31.332Z,98.25
2022-08-17T16:56:58.392Z,100.00
2022-08-17T16:59:30.754Z,100.00
2022-08-17T17:02:04.967Z,90.16
2022-08-17T17:04:35.183Z,100.00
2022-08-17T17:07:44.207Z,100.00
2022-08-17T17:10:16.959Z,100.00
2022-08-17T17:13:00.805Z,85.43
2022-08-17T17:15:59.438Z,100.00
2022-08-17T17:18:40.075Z,85.98
2022-08-17T17:21:14.153Z,84.53
2022-08-17T17:23:56.627Z,94.95
2022-08-17T17:27:08.646Z,85.33
2022-08-17T17:29:59.994Z,83.64
2022-08-17T17:32:39.144Z,83.53
2022-08-17T17:35:36.015Z,84.16
2022-08-17T17:38:18.636Z,87.23
2022-08-17T17:40:50.251Z,85.91
2022-08-17T17:43:38.900Z,89.28
2022-08-17T17:46:32.947Z,98.58
2022-08-17T17:49:00.963Z,90.33
2022-08-17T17:52:09.555Z,89.92
2022-08-17T17:54:54.414Z,100.00
2022-08-17T17:58:01.051Z,100.00
2022-08-17T18:01:01.209Z,100.00
2022-08-17T18:03:54.714Z,100.00
2022-08-17T18:06:45.619Z,100.00
2022-08-17T18:09:43.506Z,100.00
2022-08-17T18:13:09.807Z,100.00
2022-08-17T18:15:51.296Z,100.00
2022-08-17T18:18:18.243Z,100.00
2022-08-17T18:20:53.975Z,100.00
2022-08-17T18:23:28.160Z,100.00
2022-08-17T18:25:56.620Z,100.00
2022-08-17T18:28:30.264Z,100.00
2022-08-17T18:31:10.953Z,100.00
2022-08-17T18:33:42.540Z,100.00
2022-08-17T18:36:11.576Z,100.00
2022-08-17T18:38:42.780Z,100.00
2022-08-17T18:41:27.645Z,100.00
2022-08-17T18:44:03.780Z,100.00
2022-08-17T18:46:36.804Z,100.00
2022-08-17T18:49:25.678Z,100.00
2022-08-17T18:52:30.634Z,100.00
2022-08-17T18:55:21.597Z,100.00
2022-08-17T18:57:56.079Z,100.00
2022-08-17T19:00:40.759Z,100.00
2022-08-17T19:03:18.017Z,100.00
2022-08-17T19:05:54.468Z,100.00
2022-08-17T19:08:30.194Z,100.00
2022-08-17T19:11:11.755Z,100.00
2022-08-17T19:14:05.803Z,100.00
2022-08-17T19:16:51.797Z,100.00
2022-08-17T19:19:31.211Z,100.00
2022-08-17T19:22:12.605Z,100.00
2022-08-17T19:24:47.501Z,100.00
2022-08-17T19:27:29.331Z,100.00
2022-08-17T19:30:08.790Z,100.00
2022-08-17T19:32:36.246Z,100.00
2022-08-17T19:35:07.910Z,100.00
2022-08-17T19:38:06.294Z,100.00
2022-08-17T19:41:19.712Z,100.00
2022-08-17T19:44:17.293Z,100.00
2022-08-17T19:47:06.184Z,100.00
2022-08-17T19:50:00.721Z,100.00
2022-08-17T19:52:55.347Z,100.00
2022-08-17T19:56:15.593Z,100.00
2022-08-17T19:59:18.041Z,100.00
2022-08-17T20:01:53.541Z,100.00
2022-08-17T20:04:51.066Z,100.00
2022-08-17T20:08:04.926Z,100.00
2022-08-17T20:10:47.363Z,100.00
2022-08-17T20:13:44.438Z,100.00
2022-08-17T20:16:12.474Z,100.00
2022-08-17T20:19:11.766Z,100.00
2022-08-17T20:22:04.098Z,100.00
2022-08-17T20:24:57.523Z,100.00
2022-08-17T20:27:35.472Z,100.00
2022-08-17T20:30:10.288Z,100.00
2022-08-17T20:32:51.785Z,100.00
2022-08-17T20:35:37.963Z,100.00
2022-08-17T20:38:13.488Z,100.00
2022-08-17T20:41:07.418Z,100.00
2022-08-17T20:43:34.751Z,100.00
2022-08-17T20:46:35.535Z,100.00
2022-08-17T20:49:14.015Z,100.00
2022-08-17T20:52:18.281Z,100.00
2022-08-17T20:54:55.855Z,100.00
2022-08-17T20:57:32.075Z,100.00
2022-08-17T21:00:17.258Z,100.00
2022-08-17T21:03:23.379Z,100.00
2022-08-17T21:06:17.696Z,100.00
2022-08-17T21:09:12.887Z,100.00
2022-08-17T21:12:04.363Z,100.00
2022-08-17T21:14:58.001Z,100.00
2022-08-17T21:18:16.409Z,100.00
2022-08-17T21:21:01.511Z,100.00
2022-08-17T21:24:00.222Z,100.00
2022-08-17T21:26:50.686Z,100.00
2022-08-17T21:29:31.086Z,100.00
2022-08-17T21:31:59.538Z,100.00
2022-08-17T21:34:34.630Z,100.00
2022-08-17T21:37:20.154Z,100.00
2022-08-17T21:40:00.111Z,100.00
2022-08-17T21:42:32.058Z,100.00
2022-08-17T21:45:11.422Z,100.00
2022-08-17T21:47:40.907Z,100.00
2022-08-17T21:50:25.704Z,100.00
2022-08-17T21:52:54.553Z,100.00
2022-08-17T21:55:28.404Z,100.00
2022-08-17T21:58:13.727Z,100.00
2022-08-17T22:00:44.501Z,100.00
2022-08-17T22:03:26.003Z,100.00
2022-08-17T22:05:53.009Z,100.00
2022-08-17T22:08:24.331Z,100.00
2022-08-17T22:11:00.653Z,100.00
2022-08-17T22:13:29.624Z,100.00
2022-08-17T22:16:28.041Z,100.00
2022-08-17T22:18:58.253Z,100.00
2022-08-17T22:21:26.275Z,100.00
2022-08-17T22:24:05.409Z,100.00
2022-08-17T22:27:11.471Z,100.00
2022-08-17T22:29:59.691Z,100.00
2022-08-17T22:32:40.004Z,100.00
2022-08-17T22:35:28.927Z,100.00
2022-08-17T22:37:57.187Z,100.00
2022-08-17T22:40:33.137Z,100.00
2022-08-17T22:43:03.373Z,100.00
2022-08-17T22:45:31.144Z,100.00
2022-08-17T22:48:00.354Z,100.00
2022-08-17T22:50:33.028Z,100.00
2022-08-17T22:53:32.421Z,100.00
2022-08-17T22:56:18.075Z,100.00
2022-08-17T22:59:14.598Z,100.00
2022-08-17T23:01:45.423Z,100.00
2022-08-17T23:04:37.136Z,100.00
2022-08-17T23:07:04.414Z,100.00
2022-08-17T23:09:31.358Z,100.00
2022-08-17T23:11:59.114Z,100.00
2022-08-17T23:14:31.668Z,100.00
2022-08-17T23:16:59.793Z,100.00
2022-08-17T23:19:31.631Z,100.00
2022-08-17T23:22:04.157Z,100.00
2022-08-17T23:24:37.948Z,100.00
2022-08-17T23:27:07.338Z,100.00
2022-08-17T23:29:35.599Z,100.00
2022-08-17T23:32:04.684Z,100.00
2022-08-17T23:34:31.693Z,100.00
2022-08-17T23:36:59.979Z,100.00
2022-08-17T23:39:28.150Z,100.00
2022-08-17T23:42:00.864Z,100.00
2022-08-17T23:44:28.768Z,100.00
2022-08-17T23:46:56.205Z,100.00
2022-08-17T23:49:25.096Z,100.00
2022-08-17T23:51:54.690Z,100.00
2022-08-17T23:54:34.681Z,100.00
2022-08-17T23:57:02.729Z,100.00
2022-08-17T23:59:29.694Z,100.00
